Time;durP1;ratioP1;P1;durP2;ratioP2;P2;SDS_P1;SDS_P2;PMS_P1;PMS_P2;Temp;Humidity;BMP_temperature;BMP_pressure;BME280_temperature;BME280_humidity;BME280_pressure;Samples;Min_cycle;Max_cycle;Signal;HPM_P1;HPM_P2
2023/08/10 00:00:32;;;;;;;7.60;1.75;;;14.90;99.90;;;;;;5088658;28;20101;-64
2023/08/10 00:02:58;;;;;;;5.75;1.90;;;14.90;99.90;;;;;;5089150;28;20028;-64
2023/08/10 00:05:24;;;;;;;7.88;1.95;;;14.90;99.90;;;;;;5091157;28;20140;-64
2023/08/10 00:07:50;;;;;;;5.00;1.83;;;14.90;99.90;;;;;;5089599;28;20032;-64
2023/08/10 00:10:16;;;;;;;4.57;2.15;;;14.90;99.90;;;;;;5088689;28;20119;-64
2023/08/10 00:12:42;;;;;;;4.72;1.75;;;14.90;99.90;;;;;;5090566;28;20115;-64
2023/08/10 00:15:08;;;;;;;5.07;2.00;;;14.90;99.90;;;;;;5090966;28;20071;-64
2023/08/10 00:17:34;;;;;;;3.60;1.90;;;14.90;99.90;;;;;;5089793;28;20097;-64
2023/08/10 00:19:59;;;;;;;9.32;1.90;;;14.90;99.90;;;;;;5089533;28;20069;-64
2023/08/10 00:22:25;;;;;;;6.53;1.98;;;14.90;99.90;;;;;;5090618;28;20413;-64
2023/08/10 00:24:51;;;;;;;8.25;2.15;;;14.90;99.90;;;;;;5076511;22;20127;-65
2023/08/10 00:27:17;;;;;;;7.10;1.80;;;14.80;99.90;;;;;;5068832;28;20043;-65
2023/08/10 00:29:44;;;;;;;5.40;2.05;;;14.90;99.90;;;;;;5053594;28;20032;-65
2023/08/10 00:32:09;;;;;;;8.70;2.10;;;14.80;99.90;;;;;;5070860;28;20094;-65
2023/08/10 00:34:35;;;;;;;4.65;1.88;;;14.80;99.90;;;;;;5043306;28;20035;-65
2023/08/10 00:37:01;;;;;;;4.90;1.83;;;14.80;99.90;;;;;;5049695;28;20434;-65
2023/08/10 00:39:27;;;;;;;8.40;1.98;;;14.80;99.90;;;;;;5050821;28;20552;-65
2023/08/10 00:41:53;;;;;;;5.10;2.10;;;14.80;99.90;;;;;;5050889;28;20033;-65
2023/08/10 00:44:19;;;;;;;6.32;1.63;;;14.70;99.90;;;;;;5041643;28;20041;-65
2023/08/10 00:46:45;;;;;;;7.63;1.85;;;14.80;99.90;;;;;;5043944;28;20037;-65
2023/08/10 00:49:11;;;;;;;3.55;2.10;;;14.70;99.90;;;;;;5048458;28;20048;-65
2023/08/10 00:51:37;;;;;;;2.63;1.63;;;14.70;99.90;;;;;;5044729;28;20033;-65
2023/08/10 00:54:05;;;;;;;6.60;1.90;;;14.60;99.90;;;;;;5053198;28;20095;-65
2023/08/10 00:56:30;;;;;;;6.03;1.83;;;14.60;99.90;;;;;;5056224;28;20116;-65
2023/08/10 00:58:56;;;;;;;3.10;1.63;;;14.60;99.90;;;;;;5049394;28;20112;-65
2023/08/10 01:01:22;;;;;;;5.60;1.90;;;14.60;99.90;;;;;;5035024;28;20106;-65
2023/08/10 01:03:47;;;;;;;6.55;2.25;;;14.60;99.90;;;;;;5050589;28;20394;-65
2023/08/10 01:06:28;;;;;;;4.68;1.67;;;14.60;99.90;;;;;;5053464;28;20087;-64
2023/08/10 01:08:56;;;;;;;5.00;1.48;;;14.60;99.90;;;;;;5052659;28;20041;-65
2023/08/10 01:11:36;;;;;;;4.35;1.73;;;14.60;99.90;;;;;;5043830;28;20037;-65
2023/08/10 01:14:12;;;;;;;3.40;1.67;;;14.60;99.90;;;;;;5049619;28;20048;-65
2023/08/10 01:16:41;;;;;;;3.05;1.90;;;14.60;99.90;;;;;;5057460;28;20032;-65
2023/08/10 01:19:32;;;;;;;5.78;1.73;;;14.60;99.90;;;;;;5045027;28;20117;-65
2023/08/10 01:22:12;;;;;;;3.63;1.77;;;14.60;99.90;;;;;;5046939;28;20056;-65
2023/08/10 01:24:43;;;;;;;6.97;1.80;;;14.50;99.90;;;;;;5051556;28;20086;-64
2023/08/10 01:27:10;;;;;;;;;;;14.50;99.90;;;;;;5055527;28;20044;-65
2023/08/10 01:29:36;;;;;;;3.78;1.45;;;14.50;99.90;;;;;;5064427;28;20377;-65
2023/08/10 01:32:02;;;;;;;5.25;1.65;;;14.50;99.90;;;;;;5073468;28;20081;-65
2023/08/10 01:34:28;;;;;;;3.95;1.75;;;14.50;99.90;;;;;;5059674;28;20030;-65
2023/08/10 01:36:54;;;;;;;4.05;1.70;;;14.50;99.90;;;;;;5049322;28;20442;-65
2023/08/10 01:39:20;;;;;;;2.92;1.63;;;14.50;99.90;;;;;;5052888;28;20445;-65
2023/08/10 01:41:46;;;;;;;3.50;1.77;;;14.50;99.90;;;;;;5045565;28;20140;-65
2023/08/10 01:44:11;;;;;;;6.40;1.67;;;14.50;99.90;;;;;;5053283;28;20041;-65
2023/08/10 01:46:40;;;;;;;3.30;1.70;;;14.40;99.90;;;;;;5052814;28;20033;-65
2023/08/10 01:49:10;;;;;;;4.25;1.80;;;14.50;99.90;;;;;;5053773;28;20037;-65
2023/08/10 01:51:39;;;;;;;10.45;2.00;;;14.50;99.90;;;;;;5048794;28;20037;-65
2023/08/10 01:54:06;;;;;;;6.63;1.80;;;14.40;99.90;;;;;;5051432;28;20158;-65
2023/08/10 01:56:32;;;;;;;4.60;1.67;;;14.40;99.90;;;;;;5051133;28;20041;-65
2023/08/10 01:58:58;;;;;;;4.43;2.13;;;14.40;99.90;;;;;;5050337;28;20116;-65
2023/08/10 02:01:23;;;;;;;5.25;1.50;;;14.40;99.90;;;;;;5050476;28;20033;-65
2023/08/10 02:03:49;;;;;;;5.82;2.10;;;14.40;99.90;;;;;;5050831;28;20502;-65
2023/08/10 02:06:14;;;;;;;4.07;1.90;;;14.40;99.90;;;;;;5049611;28;20045;-65
2023/08/10 02:08:40;;;;;;;5.95;2.17;;;14.30;99.90;;;;;;5052088;28;20047;-65
2023/08/10 02:11:06;;;;;;;6.65;1.88;;;14.20;99.90;;;;;;5048747;28;20062;-65
2023/08/10 02:13:31;;;;;;;3.92;1.80;;;14.30;99.90;;;;;;5045932;28;20040;-65
2023/08/10 02:15:57;;;;;;;12.63;2.65;;;14.30;99.90;;;;;;5053134;28;20486;-65
2023/08/10 02:18:22;;;;;;;4.65;1.80;;;14.30;99.90;;;;;;5047854;28;20030;-65
2023/08/10 02:20:48;;;;;;;7.45;2.17;;;14.30;99.90;;;;;;5048339;28;20036;-65
2023/08/10 02:23:14;;;;;;;5.20;2.10;;;14.20;99.90;;;;;;5052174;28;20041;-65
2023/08/10 02:25:39;;;;;;;5.82;2.13;;;14.30;99.90;;;;;;5052844;28;20116;-65
2023/08/10 02:28:05;;;;;;;6.32;2.30;;;14.30;99.90;;;;;;5043238;28;20462;-65
2023/08/10 02:30:30;;;;;;;5.55;1.98;;;14.20;99.90;;;;;;5038466;28;20033;-65
2023/08/10 02:32:56;;;;;;;5.82;2.00;;;14.20;99.90;;;;;;5044123;28;20044;-65
2023/08/10 02:35:22;;;;;;;8.20;2.40;;;14.20;99.90;;;;;;5043860;28;20430;-65
2023/08/10 02:37:48;;;;;;;4.25;1.98;;;14.20;99.90;;;;;;5043278;28;20034;-65
2023/08/10 02:40:14;;;;;;;3.60;1.65;;;14.20;99.90;;;;;;5049706;28;20114;-65
2023/08/10 02:42:40;;;;;;;5.63;2.00;;;14.20;99.90;;;;;;5051562;28;20536;-65
2023/08/10 02:45:07;;;;;;;8.27;2.17;;;14.10;99.90;;;;;;5049208;28;20072;-65
2023/08/10 02:47:34;;;;;;;5.78;2.00;;;14.10;99.90;;;;;;5025257;28;20514;-65
2023/08/10 02:49:59;;;;;;;5.63;1.77;;;14.10;99.90;;;;;;5052367;28;20043;-65
2023/08/10 02:52:25;;;;;;;5.72;2.17;;;14.00;99.90;;;;;;5043718;28;20395;-65
2023/08/10 02:54:51;;;;;;;5.63;2.08;;;14.10;99.90;;;;;;5043407;28;20041;-65
2023/08/10 02:57:16;;;;;;;4.53;1.70;;;14.00;99.90;;;;;;5046906;28;20036;-65
2023/08/10 02:59:42;;;;;;;6.63;2.17;;;14.00;99.90;;;;;;5051572;28;20053;-65
2023/08/10 03:02:08;;;;;;;5.25;2.10;;;14.00;99.90;;;;;;5039722;28;20499;-65
2023/08/10 03:04:34;;;;;;;3.90;2.30;;;14.00;99.90;;;;;;5048742;28;20029;-65
2023/08/10 03:07:00;;;;;;;3.35;1.90;;;14.00;99.90;;;;;;5048913;28;20044;-65
2023/08/10 03:09:26;;;;;;;5.40;2.10;;;14.00;99.90;;;;;;5051059;28;20039;-65
2023/08/10 03:11:52;;;;;;;5.80;2.03;;;14.00;99.90;;;;;;5052196;28;20048;-65
2023/08/10 03:14:18;;;;;;;7.07;2.35;;;14.00;99.90;;;;;;5049515;28;20032;-65
2023/08/10 03:16:43;;;;;;;4.80;2.30;;;14.00;99.90;;;;;;5051096;28;20495;-64
2023/08/10 03:19:09;;;;;;;7.32;2.40;;;14.00;99.90;;;;;;5046949;28;20040;-65
2023/08/10 03:21:35;;;;;;;6.25;1.98;;;14.00;99.90;;;;;;5033724;28;20436;-65
2023/08/10 03:24:00;;;;;;;5.60;2.10;;;14.10;99.90;;;;;;5048694;28;20403;-65
2023/08/10 03:26:26;;;;;;;5.57;2.33;;;14.10;99.90;;;;;;5044538;28;20041;-65
2023/08/10 03:28:51;;;;;;;3.67;2.10;;;14.10;99.90;;;;;;5050283;28;20443;-65
2023/08/10 03:31:17;;;;;;;4.35;2.33;;;14.00;99.90;;;;;;5050869;28;20070;-65
2023/08/10 03:33:43;;;;;;;4.05;1.95;;;14.10;99.90;;;;;;5041829;28;20033;-64
2023/08/10 03:36:09;;;;;;;4.25;2.15;;;14.10;99.90;;;;;;5051549;28;20037;-65
2023/08/10 03:38:35;;;;;;;5.72;2.53;;;14.10;99.90;;;;;;5050497;28;20067;-65
2023/08/10 03:41:00;;;;;;;7.68;2.60;;;14.10;99.90;;;;;;5051920;28;20094;-65
2023/08/10 03:43:26;;;;;;;5.70;2.22;;;14.10;99.90;;;;;;5044761;28;20029;-65
2023/08/10 03:45:51;;;;;;;5.65;2.20;;;14.10;99.90;;;;;;5043550;28;20576;-65
2023/08/10 03:48:17;;;;;;;4.47;2.63;;;14.10;99.90;;;;;;5049753;28;20028;-65
2023/08/10 03:50:42;;;;;;;5.18;2.17;;;14.20;99.90;;;;;;5051178;28;20033;-64
2023/08/10 03:53:08;;;;;;;3.72;2.00;;;14.20;99.90;;;;;;5051006;28;20090;-65
2023/08/10 03:55:34;;;;;;;5.13;2.20;;;14.20;99.90;;;;;;5049496;28;20037;-65
2023/08/10 03:57:59;;;;;;;5.78;2.80;;;14.20;99.90;;;;;;5050563;28;20065;-65
2023/08/10 04:00:25;;;;;;;3.55;1.88;;;14.20;99.90;;;;;;5049239;28;20033;-65
2023/08/10 04:02:50;;;;;;;4.65;2.00;;;14.30;99.90;;;;;;5040644;28;20108;-65
2023/08/10 04:05:16;;;;;;;5.75;2.20;;;14.30;99.90;;;;;;5049962;28;20220;-65
2023/08/10 04:07:42;;;;;;;6.38;2.08;;;14.30;99.90;;;;;;5046877;28;20038;-65
2023/08/10 04:10:10;;;;;;;5.50;2.17;;;14.30;99.90;;;;;;5050759;28;20442;-65
2023/08/10 04:12:36;;;;;;;3.53;2.03;;;14.30;99.90;;;;;;5051153;28;20087;-65
2023/08/10 04:15:03;;;;;;;5.57;2.13;;;14.30;99.90;;;;;;5039178;28;20068;-65
2023/08/10 04:17:29;;;;;;;6.45;2.28;;;14.30;99.90;;;;;;5042773;28;20461;-65
2023/08/10 04:19:56;;;;;;;4.90;2.20;;;14.30;99.90;;;;;;5051064;28;20037;-65
2023/08/10 04:22:23;;;;;;;5.43;2.70;;;14.30;99.90;;;;;;5050294;28;20063;-65
2023/08/10 04:24:49;;;;;;;6.55;2.65;;;14.30;99.90;;;;;;5040145;28;20563;-65
2023/08/10 04:27:16;;;;;;;7.63;2.78;;;14.30;99.90;;;;;;5049106;28;20048;-65
2023/08/10 04:29:46;;;;;;;8.75;2.97;;;14.30;99.90;;;;;;5050204;28;20414;-65
2023/08/10 04:32:12;;;;;;;5.43;2.53;;;14.30;99.90;;;;;;5051240;28;20041;-65
2023/08/10 04:34:39;;;;;;;7.85;2.45;;;14.30;99.90;;;;;;5049346;28;20024;-65
2023/08/10 04:37:05;;;;;;;6.78;2.58;;;14.30;99.90;;;;;;5054849;28;20120;-65
2023/08/10 04:39:32;;;;;;;3.60;2.53;;;14.30;99.90;;;;;;5045730;28;20115;-65
2023/08/10 04:41:58;;;;;;;4.53;2.53;;;14.30;99.90;;;;;;5052751;28;20041;-65
2023/08/10 04:44:24;;;;;;;8.98;2.65;;;14.30;99.90;;;;;;5046038;28;20060;-65
2023/08/10 04:46:50;;;;;;;5.82;2.70;;;14.30;99.90;;;;;;5050921;28;20154;-65
2023/08/10 04:49:16;;;;;;;6.55;2.60;;;14.40;99.90;;;;;;5047616;28;20029;-65
2023/08/10 04:51:41;;;;;;;6.75;2.85;;;14.40;99.90;;;;;;5046653;28;20561;-65
2023/08/10 04:54:08;;;;;;;6.65;2.60;;;14.40;99.90;;;;;;5053644;28;20036;-65
2023/08/10 04:56:35;;;;;;;6.32;2.40;;;14.40;99.90;;;;;;5051663;28;20406;-65
2023/08/10 04:59:02;;;;;;;6.60;2.60;;;14.40;99.90;;;;;;5050390;28;20052;-65
2023/08/10 05:01:28;;;;;;;5.78;2.38;;;14.50;99.90;;;;;;5050537;28;20513;-65
2023/08/10 05:03:54;;;;;;;4.00;2.50;;;14.50;99.90;;;;;;5052614;28;20550;-65
2023/08/10 05:06:20;;;;;;;5.20;2.60;;;14.40;99.90;;;;;;5051093;28;20121;-65
2023/08/10 05:08:46;;;;;;;8.07;2.80;;;14.50;99.90;;;;;;5049702;28;20102;-65
2023/08/10 05:11:11;;;;;;;5.32;2.55;;;14.60;99.90;;;;;;5050435;28;20039;-65
2023/08/10 05:13:37;;;;;;;3.75;2.70;;;14.60;99.90;;;;;;5046331;28;20057;-65
2023/08/10 05:16:03;;;;;;;5.70;2.83;;;14.60;99.90;;;;;;5051673;28;20076;-65
2023/08/10 05:18:29;;;;;;;5.93;2.80;;;14.70;99.90;;;;;;5048247;28;20041;-65
2023/08/10 05:20:58;;;;;;;7.72;3.03;;;14.70;99.90;;;;;;5053527;28;20453;-65
2023/08/10 05:23:24;;;;;;;8.43;3.45;;;14.80;99.90;;;;;;5051821;28;20059;-65
2023/08/10 05:25:50;;;;;;;6.95;3.08;;;14.80;99.90;;;;;;5053369;28;20037;-65
2023/08/10 05:28:16;;;;;;;6.07;3.10;;;14.80;99.90;;;;;;5053903;28;20044;-65
2023/08/10 05:30:42;;;;;;;5.07;2.92;;;14.90;99.90;;;;;;5040815;28;20110;-65
2023/08/10 05:33:07;;;;;;;7.15;3.15;;;14.90;99.90;;;;;;5053307;28;20052;-65
2023/08/10 05:35:33;;;;;;;8.93;3.50;;;14.80;99.90;;;;;;5052901;28;20044;-65
2023/08/10 05:37:58;;;;;;;6.80;3.17;;;15.00;99.90;;;;;;5051043;28;20052;-65
2023/08/10 05:40:24;;;;;;;6.15;3.10;;;15.00;99.90;;;;;;5036764;28;20041;-65
2023/08/10 05:42:50;;;;;;;8.88;3.50;;;15.10;99.90;;;;;;5052803;28;20049;-65
2023/08/10 05:45:16;;;;;;;6.10;3.17;;;15.10;99.90;;;;;;5057073;28;20170;-65
2023/08/10 05:47:43;;;;;;;3.47;2.90;;;15.10;99.90;;;;;;5046804;28;20491;-65
2023/08/10 05:50:09;;;;;;;6.20;3.15;;;15.10;99.90;;;;;;5042526;28;20044;-64
2023/08/10 05:52:35;;;;;;;5.78;3.08;;;15.10;99.90;;;;;;5048494;28;20037;-65
2023/08/10 05:55:00;;;;;;;8.68;3.90;;;15.20;99.90;;;;;;5048938;28;20045;-65
2023/08/10 05:57:26;;;;;;;8.82;3.55;;;15.20;99.90;;;;;;5053026;28;20106;-65
2023/08/10 05:59:53;;;;;;;5.90;3.00;;;15.20;99.90;;;;;;5053336;28;20037;-65
2023/08/10 06:02:19;;;;;;;8.02;3.67;;;15.30;99.90;;;;;;5050249;28;20433;-65
2023/08/10 06:04:45;;;;;;;6.65;3.47;;;15.30;99.90;;;;;;5045531;28;20036;-65
2023/08/10 06:07:12;;;;;;;6.95;3.20;;;15.30;99.90;;;;;;5042426;28;20039;-65
2023/08/10 06:09:37;;;;;;;8.02;3.70;;;15.30;99.90;;;;;;5053251;28;20040;-66
2023/08/10 06:12:04;;;;;;;6.90;3.45;;;15.40;99.90;;;;;;5049312;28;20581;-65
2023/08/10 06:14:30;;;;;;;7.45;3.35;;;15.40;99.90;;;;;;5047197;28;20033;-65
2023/08/10 06:16:55;;;;;;;6.30;3.45;;;15.50;99.90;;;;;;5053147;28;20056;-65
2023/08/10 06:19:21;;;;;;;6.80;3.53;;;15.40;99.90;;;;;;5049709;28;20033;-65
2023/08/10 06:21:46;;;;;;;8.82;3.20;;;15.50;99.90;;;;;;5056075;28;20040;-65
2023/08/10 06:24:12;;;;;;;7.70;3.30;;;15.60;99.90;;;;;;5081190;22;20473;-61
2023/08/10 06:26:38;;;;;;;7.82;3.80;;;15.60;99.90;;;;;;5089708;28;20046;-61
2023/08/10 06:29:04;;;;;;;6.20;2.65;;;15.80;99.90;;;;;;5086483;28;20055;-61
2023/08/10 06:31:30;;;;;;;8.02;3.42;;;16.00;99.90;;;;;;5092467;28;20040;-62
2023/08/10 06:33:56;;;;;;;7.40;3.20;;;16.20;99.90;;;;;;5092764;28;20040;-61
2023/08/10 06:36:22;;;;;;;5.53;2.55;;;16.40;99.90;;;;;;5089605;28;20036;-62
2023/08/10 06:38:48;;;;;;;6.90;2.58;;;16.60;99.90;;;;;;5083402;28;20051;-62
2023/08/10 06:41:14;;;;;;;4.10;2.05;;;16.70;99.90;;;;;;5085924;28;20040;-62
2023/08/10 06:43:58;;;;;;;5.50;1.90;;;16.80;99.90;;;;;;5086653;28;20047;-61
2023/08/10 06:46:24;;;;;;;11.02;2.30;;;17.00;99.90;;;;;;5101371;28;20041;-62
2023/08/10 06:48:49;;;;;;;8.02;2.00;;;16.90;99.90;;;;;;5089356;28;20047;-62
2023/08/10 06:51:15;;;;;;;5.78;2.03;;;17.00;99.90;;;;;;5092672;28;20040;-62
2023/08/10 06:53:41;;;;;;;5.05;2.05;;;17.10;99.90;;;;;;5084150;28;20036;-62
2023/08/10 06:56:07;;;;;;;5.70;1.50;;;17.20;99.90;;;;;;5091298;28;20035;-62
2023/08/10 06:58:33;;;;;;;3.88;1.30;;;17.40;99.90;;;;;;5091792;28;20114;-62
2023/08/10 07:01:00;;;;;;;6.97;1.50;;;17.60;99.90;;;;;;5092286;28;20406;-62
2023/08/10 07:03:26;;;;;;;5.03;1.40;;;17.70;99.90;;;;;;5088822;28;20029;-62
2023/08/10 07:05:51;;;;;;;6.22;1.10;;;17.90;99.90;;;;;;5081585;28;20126;-62
2023/08/10 07:08:17;;;;;;;5.55;1.10;;;17.90;99.90;;;;;;5082388;28;20045;-62
2023/08/10 07:10:43;;;;;;;2.20;1.10;;;18.00;99.90;;;;;;5084414;28;20082;-62
2023/08/10 07:13:08;;;;;;;5.47;1.20;;;17.90;99.90;;;;;;5083996;28;20893;-62
2023/08/10 07:15:34;;;;;;;1.67;1.27;;;17.90;99.90;;;;;;5079077;28;20119;-62
2023/08/10 07:18:00;;;;;;;5.38;1.80;;;17.90;99.90;;;;;;5077508;28;20040;-62
2023/08/10 07:20:26;;;;;;;2.63;1.23;;;18.00;99.90;;;;;;5076877;28;20032;-61
2023/08/10 07:22:52;;;;;;;6.30;1.30;;;17.90;99.90;;;;;;5076039;28;20093;-62
2023/08/10 07:25:22;;;;;;;5.00;1.55;;;17.90;99.90;;;;;;5082288;28;20075;-62
2023/08/10 07:27:47;;;;;;;4.65;1.13;;;17.90;99.90;;;;;;5084100;28;20115;-62
2023/08/10 07:30:14;;;;;;;4.55;1.75;;;18.00;99.90;;;;;;5078835;28;20119;-62
2023/08/10 07:32:40;;;;;;;6.35;1.35;;;18.10;99.90;;;;;;5079544;28;20367;-62
2023/08/10 07:35:06;;;;;;;2.35;1.13;;;18.20;99.90;;;;;;5078191;28;20036;-62
2023/08/10 07:37:35;;;;;;;4.22;1.33;;;18.30;99.90;;;;;;5076678;28;20486;-62
2023/08/10 07:40:02;;;;;;;4.05;1.30;;;18.30;99.90;;;;;;5079254;28;20044;-63
2023/08/10 07:42:28;;;;;;;4.55;1.40;;;18.40;99.90;;;;;;5089010;28;20089;-62
2023/08/10 07:44:54;;;;;;;4.78;1.38;;;18.60;99.90;;;;;;5085947;28;20036;-62
2023/08/10 07:47:20;;;;;;;3.70;1.40;;;18.70;99.90;;;;;;5089516;28;20382;-62
2023/08/10 07:49:45;;;;;;;4.80;1.63;;;18.80;99.90;;;;;;5089976;28;20035;-62
2023/08/10 07:52:11;;;;;;;8.10;1.55;;;18.90;99.90;;;;;;5089827;28;20047;-62
2023/08/10 07:54:37;;;;;;;5.10;1.38;;;19.10;99.90;;;;;;5089048;28;20036;-62
2023/08/10 07:57:03;;;;;;;5.60;1.80;;;19.10;99.90;;;;;;5089439;28;20401;-62
2023/08/10 07:59:29;;;;;;;14.60;2.85;;;19.20;99.90;;;;;;5088895;28;20036;-62
2023/08/10 08:01:54;;;;;;;7.68;1.92;;;19.20;99.90;;;;;;5091913;28;20032;-62
2023/08/10 08:04:20;;;;;;;4.10;1.50;;;19.10;99.90;;;;;;5091229;28;20115;-63
2023/08/10 08:06:46;;;;;;;7.13;2.10;;;19.00;99.90;;;;;;5089985;28;20044;-63
2023/08/10 08:09:12;;;;;;;4.18;1.33;;;18.90;99.90;;;;;;5091890;28;20070;-62
2023/08/10 08:11:38;;;;;;;4.85;1.60;;;18.90;99.90;;;;;;5089727;28;20036;-62
2023/08/10 08:14:04;;;;;;;4.57;1.40;;;18.90;99.90;;;;;;5091401;28;20032;-62
2023/08/10 08:16:30;;;;;;;3.90;1.40;;;18.80;99.90;;;;;;5091232;28;20135;-62
2023/08/10 08:18:56;;;;;;;5.68;1.42;;;18.80;99.90;;;;;;5090134;28;20055;-62
2023/08/10 08:21:26;;;;;;;5.72;1.55;;;18.90;99.90;;;;;;5091319;28;20470;-62
2023/08/10 08:23:53;;;;;;;3.58;1.27;;;19.00;99.90;;;;;;5091174;28;20505;-62
2023/08/10 08:26:20;;;;;;;4.05;1.10;;;18.90;99.90;;;;;;5091652;28;20086;-61
2023/08/10 08:28:46;;;;;;;5.32;1.30;;;18.90;99.90;;;;;;5089948;28;20036;-62
2023/08/10 08:31:13;;;;;;;4.38;1.35;;;19.00;99.90;;;;;;5091254;28;20068;-62
2023/08/10 08:33:39;;;;;;;4.95;1.55;;;19.00;99.90;;;;;;5091285;28;20051;-62
2023/08/10 08:36:08;;;;;;;8.75;2.63;;;19.00;99.90;;;;;;5090577;28;20036;-62
2023/08/10 08:38:34;;;;;;;4.57;1.42;;;19.00;99.90;;;;;;5091255;28;20127;-62
2023/08/10 08:41:05;;;;;;;4.03;0.90;;;18.80;99.90;;;;;;5091731;28;20115;-62
2023/08/10 08:43:32;;;;;;;5.68;1.30;;;18.80;99.90;;;;;;5081755;28;20041;-62
2023/08/10 08:45:59;;;;;;;7.18;1.85;;;18.80;99.90;;;;;;5077372;28;20040;-62
2023/08/10 08:48:29;;;;;;;1.58;0.85;;;18.80;99.90;;;;;;5082782;28;20040;-62
2023/08/10 08:50:55;;;;;;;4.30;1.37;;;18.80;99.90;;;;;;5076653;28;20033;-62
2023/08/10 08:53:22;;;;;;;3.83;1.50;;;18.80;99.90;;;;;;5090841;28;20093;-62
2023/08/10 08:55:47;;;;;;;7.28;1.83;;;18.70;99.90;;;;;;5087155;28;20460;-62
2023/08/10 08:58:18;;;;;;;3.40;1.10;;;18.70;99.90;;;;;;5080493;28;20166;-61
2023/08/10 09:00:53;;;;;;;3.75;1.23;;;18.70;99.90;;;;;;5082393;28;20036;-62
2023/08/10 09:03:26;;;;;;;5.60;1.50;;;18.80;99.90;;;;;;5076455;28;20040;-62
2023/08/10 09:05:52;;;;;;;7.57;1.67;;;18.80;99.90;;;;;;5083175;28;20073;-62
2023/08/10 09:08:19;;;;;;;4.80;1.25;;;18.80;99.90;;;;;;5081460;28;20413;-62
2023/08/10 09:10:47;;;;;;;4.13;1.45;;;18.80;99.90;;;;;;5080817;28;20054;-62
2023/08/10 09:13:23;;;;;;;5.75;1.20;;;18.70;99.90;;;;;;5084430;28;20067;-62
2023/08/10 09:16:12;;;;;;;4.68;1.30;;;18.60;99.90;;;;;;5086471;28;20127;-62
2023/08/10 09:18:41;;;;;;;5.28;1.35;;;18.50;99.90;;;;;;5084827;28;20036;-62
2023/08/10 09:21:13;;;;;;;4.30;1.45;;;18.50;99.90;;;;;;5081242;28;20044;-62
2023/08/10 09:23:40;;;;;;;4.43;1.52;;;18.40;99.90;;;;;;5092965;28;20081;-62
2023/08/10 09:26:10;;;;;;;3.78;1.65;;;18.30;99.90;;;;;;5093501;28;20097;-62
2023/08/10 09:28:40;;;;;;;8.52;2.40;;;18.40;99.90;;;;;;5088519;28;20044;-62
2023/08/10 09:31:10;;;;;;;5.57;1.20;;;18.40;99.90;;;;;;5085030;28;20063;-62
2023/08/10 09:33:37;;;;;;;7.80;1.42;;;18.40;99.90;;;;;;5094100;28;20493;-62
2023/08/10 09:36:08;;;;;;;5.07;1.27;;;18.40;99.90;;;;;;5092428;28;20127;-62
2023/08/10 09:38:34;;;;;;;4.13;1.45;;;18.40;99.90;;;;;;5086500;28;20037;-62
2023/08/10 09:41:10;;;;;;;4.15;1.15;;;18.40;99.90;;;;;;5090920;28;20520;-62
2023/08/10 09:43:37;;;;;;;4.75;1.10;;;18.30;99.90;;;;;;5093711;28;20390;-63
2023/08/10 09:46:06;;;;;;;5.65;1.50;;;18.40;99.90;;;;;;5094245;28;20044;-62
2023/08/10 09:48:40;;;;;;;3.53;1.40;;;18.40;99.90;;;;;;5093443;28;20396;-62
2023/08/10 09:51:08;;;;;;;6.05;1.40;;;18.40;99.90;;;;;;5084098;28;20033;-62
2023/08/10 09:53:35;;;;;;;3.70;1.42;;;18.40;99.90;;;;;;5084696;28;20517;-62
2023/08/10 09:56:01;;;;;;;4.07;1.20;;;18.40;99.90;;;;;;5081716;28;20090;-62
2023/08/10 09:58:27;;;;;;;3.38;1.40;;;18.40;99.90;;;;;;5092283;28;20032;-62
2023/08/10 10:00:53;;;;;;;6.35;1.67;;;18.40;99.90;;;;;;5084178;28;20470;-63
2023/08/10 10:03:28;;;;;;;6.60;1.27;;;18.40;99.90;;;;;;5093327;28;20497;-63
2023/08/10 10:05:54;;;;;;;5.97;1.70;;;18.50;99.90;;;;;;5080947;28;20036;-63
2023/08/10 10:08:20;;;;;;;5.68;1.35;;;18.40;99.90;;;;;;5089267;28;20039;-63
2023/08/10 10:10:46;;;;;;;4.70;1.75;;;18.40;99.90;;;;;;5083258;28;20040;-62
2023/08/10 10:13:15;;;;;;;5.97;1.90;;;18.40;99.90;;;;;;5079075;28;20541;-63
2023/08/10 10:15:44;;;;;;;5.15;1.67;;;18.50;99.90;;;;;;5077147;28;20036;-63
2023/08/10 10:18:11;;;;;;;4.63;1.42;;;18.50;99.90;;;;;;5078646;28;20047;-63
2023/08/10 10:20:43;;;;;;;2.20;1.35;;;18.50;99.90;;;;;;5078781;28;20532;-63
2023/08/10 10:23:21;;;;;;;1.80;1.30;;;18.60;99.90;;;;;;5084584;28;20063;-63
2023/08/10 10:26:06;;;;;;;4.10;1.70;;;18.60;99.90;;;;;;5081086;28;20043;-63
2023/08/10 10:28:33;;;;;;;6.13;1.50;;;18.60;99.90;;;;;;5082844;28;20119;-62
2023/08/10 10:31:05;;;;;;;7.43;1.50;;;18.60;99.90;;;;;;5079750;28;20224;-63
2023/08/10 10:33:33;;;;;;;6.43;1.63;;;18.60;99.90;;;;;;5084737;28;20505;-63
2023/08/10 10:36:10;;;;;;;6.47;1.70;;;18.60;99.90;;;;;;5085550;28;20040;-63
2023/08/10 10:38:47;;;;;;;4.32;1.33;;;18.70;99.90;;;;;;5081835;28;20033;-62
2023/08/10 10:41:27;;;;;;;4.22;1.50;;;18.70;99.90;;;;;;5084203;28;20028;-63
2023/08/10 10:43:52;;;;;;;4.55;1.55;;;18.60;99.90;;;;;;5076996;28;20101;-62
2023/08/10 10:46:33;;;;;;;3.42;1.73;;;18.50;99.90;;;;;;5078753;28;20040;-63
2023/08/10 10:49:06;;;;;;;8.50;2.20;;;18.50;99.90;;;;;;5078083;28;20039;-62
2023/08/10 10:51:32;;;;;;;8.07;2.00;;;18.50;99.90;;;;;;5085283;28;20383;-63
2023/08/10 10:53:58;;;;;;;3.67;1.63;;;18.50;99.90;;;;;;5083805;28;20084;-63
2023/08/10 10:56:26;;;;;;;5.13;1.48;;;18.50;99.90;;;;;;5083054;28;20083;-62
2023/08/10 10:58:52;;;;;;;5.20;1.48;;;18.50;99.90;;;;;;5079689;28;20036;-62
2023/08/10 11:01:21;;;;;;;4.70;1.60;;;18.50;99.90;;;;;;5078374;28;20036;-62
2023/08/10 11:03:54;;;;;;;3.88;2.10;;;18.60;99.90;;;;;;5085495;28;20036;-63
2023/08/10 11:06:21;;;;;;;5.25;1.83;;;18.60;99.90;;;;;;5087713;28;20051;-63
2023/08/10 11:08:51;;;;;;;5.93;1.65;;;18.60;99.90;;;;;;5090174;28;20040;-63
2023/08/10 11:11:17;;;;;;;3.50;1.48;;;18.60;99.90;;;;;;5079319;28;20044;-63
2023/08/10 11:13:43;;;;;;;6.30;1.80;;;18.70;99.90;;;;;;5088301;28;20046;-63
2023/08/10 11:16:09;;;;;;;4.00;1.73;;;18.70;99.90;;;;;;5087714;28;20039;-63
2023/08/10 11:18:37;;;;;;;5.40;1.95;;;18.70;99.90;;;;;;5085359;28;20036;-63
2023/08/10 11:21:08;;;;;;;6.55;1.95;;;18.80;99.90;;;;;;5092261;28;20054;-63
2023/08/10 11:23:33;;;;;;;;;;;18.80;99.90;;;;;;5091656;28;20027;-63
2023/08/10 11:26:02;;;;;;;4.40;1.90;;;18.90;99.90;;;;;;5092656;28;19986;-63
2023/08/10 11:28:28;;;;;;;6.57;3.03;;;18.90;99.90;;;;;;5090863;28;20127;-62
2023/08/10 11:30:53;;;;;;;6.30;2.40;;;19.00;99.90;;;;;;5088542;28;20115;-62
2023/08/10 11:33:20;;;;;;;4.90;2.05;;;19.00;99.90;;;;;;5084554;28;20367;-63
2023/08/10 11:35:51;;;;;;;7.05;2.40;;;19.10;99.90;;;;;;5084764;28;20436;-63
2023/08/10 11:38:16;;;;;;;4.97;2.40;;;19.00;99.90;;;;;;5082260;28;20028;-62
2023/08/10 11:40:42;;;;;;;4.72;2.00;;;19.10;99.90;;;;;;5080921;28;20039;-62
2023/08/10 11:43:12;;;;;;;3.70;2.05;;;19.00;99.90;;;;;;5081986;28;20050;-63
2023/08/10 11:45:38;;;;;;;6.72;2.40;;;19.10;99.90;;;;;;5082299;28;20052;-63
2023/08/10 11:48:10;;;;;;;6.53;2.20;;;19.10;99.90;;;;;;5077307;28;20039;-63
2023/08/10 11:50:38;;;;;;;2.67;1.80;;;19.20;99.90;;;;;;5077750;28;20024;-62
2023/08/10 11:53:15;;;;;;;5.65;2.40;;;19.20;99.90;;;;;;5078066;28;20068;-63
2023/08/10 11:55:51;;;;;;;7.15;2.60;;;19.20;99.90;;;;;;5080421;28;20032;-63
2023/08/10 11:58:19;;;;;;;5.57;2.72;;;19.20;99.90;;;;;;5080135;28;20039;-63
2023/08/10 12:00:49;;;;;;;6.07;2.58;;;19.20;99.90;;;;;;5082126;28;20122;-63
2023/08/10 12:03:16;;;;;;;7.40;3.22;;;19.30;99.90;;;;;;5083489;28;20040;-63
2023/08/10 12:05:59;;;;;;;6.50;2.75;;;19.30;99.90;;;;;;5089735;28;20050;-63
2023/08/10 12:08:28;;;;;;;7.05;2.47;;;19.30;99.90;;;;;;5086445;28;20024;-63
2023/08/10 12:11:11;;;;;;;3.80;2.08;;;19.40;99.90;;;;;;5086862;28;20032;-63
2023/08/10 12:13:48;;;;;;;5.50;2.53;;;19.40;99.90;;;;;;5091072;28;20036;-63
2023/08/10 12:16:17;;;;;;;6.82;2.45;;;19.40;99.90;;;;;;5088182;28;20043;-63
2023/08/10 12:18:43;;;;;;;6.00;2.20;;;19.50;99.90;;;;;;5086284;28;20085;-63
2023/08/10 12:21:08;;;;;;;6.72;2.55;;;19.60;99.90;;;;;;5089041;28;20083;-63
2023/08/10 12:23:34;;;;;;;4.88;2.30;;;19.60;99.90;;;;;;5098922;22;20067;-66
2023/08/10 12:26:00;;;;;;;4.80;2.30;;;19.60;99.90;;;;;;5086466;28;20047;-66
2023/08/10 12:28:25;;;;;;;7.88;2.90;;;19.60;99.90;;;;;;5088801;28;20036;-66
2023/08/10 12:30:51;;;;;;;7.07;3.03;;;19.70;99.90;;;;;;5090030;28;20046;-66
2023/08/10 12:33:18;;;;;;;7.30;2.50;;;19.70;99.90;;;;;;5078738;28;20059;-66
2023/08/10 12:35:43;;;;;;;5.18;2.60;;;19.70;99.90;;;;;;5088230;28;20028;-65
2023/08/10 12:38:09;;;;;;;5.95;2.83;;;19.80;99.90;;;;;;5086200;28;20094;-67
2023/08/10 12:40:36;;;;;;;4.93;2.55;;;19.80;99.90;;;;;;5085160;28;20032;-65
2023/08/10 12:43:02;;;;;;;4.80;2.60;;;19.80;99.90;;;;;;5087631;28;20047;-65
2023/08/10 12:45:28;;;;;;;5.68;2.47;;;19.90;99.90;;;;;;5092227;28;20032;-65
2023/08/10 12:47:54;;;;;;;5.20;2.63;;;19.90;99.90;;;;;;5093528;28;20111;-66